sensor_id;sensor_type;location;lat;lon;timestamp;temperature;humidity
23562;DHT22;11959;49.418;8.728;2024-02-21T00:00:58;9.30;99.90
23562;DHT22;11959;49.418;8.728;2024-02-21T00:03:23;9.30;99.90
23562;DHT22;11959;49.418;8.728;2024-02-21T00:05:49;9.30;99.90
23562;DHT22;11959;49.418;8.728;2024-02-21T00:08:14;9.30;99.90
23562;DHT22;11959;49.418;8.728;2024-02-21T00:10:40;9.30;99.90
23562;DHT22;11959;49.418;8.728;2024-02-21T00:13:06;9.20;99.90
23562;DHT22;11959;49.418;8.728;2024-02-21T00:15:31;9.20;99.90
23562;DHT22;11959;49.418;8.728;2024-02-21T00:17:57;9.20;99.90
23562;DHT22;11959;49.418;8.728;2024-02-21T00:20:23;9.20;99.90
23562;DHT22;11959;49.418;8.728;2024-02-21T00:22:50;9.20;99.90
23562;DHT22;11959;49.418;8.728;2024-02-21T00:25:16;9.10;99.90
23562;DHT22;11959;49.418;8.728;2024-02-21T00:27:42;9.20;99.90
23562;DHT22;11959;49.418;8.728;2024-02-21T00:30:08;9.20;99.90
23562;DHT22;11959;49.418;8.728;2024-02-21T00:32:33;9.20;99.90
23562;DHT22;11959;49.418;8.728;2024-02-21T00:35:00;9.20;99.90
23562;DHT22;11959;49.418;8.728;2024-02-21T00:37:26;9.10;99.90
23562;DHT22;11959;49.418;8.728;2024-02-21T00:39:56;9.10;99.90
23562;DHT22;11959;49.418;8.728;2024-02-21T00:42:22;9.10;99.90
23562;DHT22;11959;49.418;8.728;2024-02-21T00:44:47;9.30;99.90
23562;DHT22;11959;49.418;8.728;2024-02-21T00:47:13;9.20;99.90
23562;DHT22;11959;49.418;8.728;2024-02-21T00:49:38;9.30;99.90
23562;DHT22;11959;49.418;8.728;2024-02-21T00:52:04;9.20;99.90
23562;DHT22;11959;49.418;8.728;2024-02-21T00:54:30;9.30;99.90
23562;DHT22;11959;49.418;8.728;2024-02-21T00:56:55;9.20;99.90
23562;DHT22;11959;49.418;8.728;2024-02-21T00:59:21;9.20;99.90
23562;DHT22;11959;49.418;8.728;2024-02-21T01:01:47;9.20;99.90
23562;DHT22;11959;49.418;8.728;2024-02-21T01:04:12;9.20;99.90
23562;DHT22;11959;49.418;8.728;2024-02-21T01:06:38;9.20;99.90
23562;DHT22;11959;49.418;8.728;2024-02-21T01:09:04;9.30;99.90
23562;DHT22;11959;49.418;8.728;2024-02-21T01:11:29;9.30;99.90
23562;DHT22;11959;49.418;8.728;2024-02-21T01:13:56;9.20;99.90
23562;DHT22;11959;49.418;8.728;2024-02-21T01:16:21;9.20;99.90
23562;DHT22;11959;49.418;8.728;2024-02-21T01:18:47;9.10;99.90
23562;DHT22;11959;49.418;8.728;2024-02-21T01:21:12;9.10;99.90
23562;DHT22;11959;49.418;8.728;2024-02-21T01:23:38;9.00;99.90
23562;DHT22;11959;49.418;8.728;2024-02-21T01:26:04;9.10;99.90
23562;DHT22;11959;49.418;8.728;2024-02-21T01:28:30;9.00;99.90
23562;DHT22;11959;49.418;8.728;2024-02-21T01:30:56;9.00;99.90
23562;DHT22;11959;49.418;8.728;2024-02-21T01:33:22;9.00;99.90
23562;DHT22;11959;49.418;8.728;2024-02-21T01:35:48;9.00;99.90
23562;DHT22;11959;49.418;8.728;2024-02-21T01:38:15;9.00;99.90
23562;DHT22;11959;49.418;8.728;2024-02-21T01:40:41;9.00;99.90
23562;DHT22;11959;49.418;8.728;2024-02-21T01:43:16;8.90;99.90
23562;DHT22;11959;49.418;8.728;2024-02-21T01:45:42;9.00;99.90
23562;DHT22;11959;49.418;8.728;2024-02-21T01:48:08;8.90;99.90
23562;DHT22;11959;49.418;8.728;2024-02-21T01:50:33;8.90;99.90
23562;DHT22;11959;49.418;8.728;2024-02-21T01:52:59;8.80;99.90
23562;DHT22;11959;49.418;8.728;2024-02-21T01:55:25;8.90;99.90
23562;DHT22;11959;49.418;8.728;2024-02-21T01:57:51;8.90;99.90
23562;DHT22;11959;49.418;8.728;2024-02-21T02:00:17;8.90;99.90
23562;DHT22;11959;49.418;8.728;2024-02-21T02:02:44;8.90;99.90
23562;DHT22;11959;49.418;8.728;2024-02-21T02:05:11;8.90;99.90
23562;DHT22;11959;49.418;8.728;2024-02-21T02:07:37;8.90;99.90
23562;DHT22;11959;49.418;8.728;2024-02-21T02:10:03;8.80;99.90
23562;DHT22;11959;49.418;8.728;2024-02-21T02:12:29;8.80;99.90
23562;DHT22;11959;49.418;8.728;2024-02-21T02:15:03;8.80;99.90
23562;DHT22;11959;49.418;8.728;2024-02-21T02:17:31;8.80;99.90
23562;DHT22;11959;49.418;8.728;2024-02-21T02:19:57;8.80;99.90
23562;DHT22;11959;49.418;8.728;2024-02-21T02:22:28;8.80;99.90
23562;DHT22;11959;49.418;8.728;2024-02-21T02:24:54;8.70;99.90
23562;DHT22;11959;49.418;8.728;2024-02-21T02:27:20;8.70;99.90
23562;DHT22;11959;49.418;8.728;2024-02-21T02:29:48;8.80;99.90
23562;DHT22;11959;49.418;8.728;2024-02-21T02:32:14;8.80;99.90
23562;DHT22;11959;49.418;8.728;2024-02-21T02:34:39;8.70;99.90
23562;DHT22;11959;49.418;8.728;2024-02-21T02:37:05;8.70;99.90
23562;DHT22;11959;49.418;8.728;2024-02-21T02:39:30;8.70;99.90
23562;DHT22;11959;49.418;8.728;2024-02-21T02:41:56;8.70;99.90
23562;DHT22;11959;49.418;8.728;2024-02-21T02:44:22;8.70;99.90
23562;DHT22;11959;49.418;8.728;2024-02-21T02:46:47;8.70;99.90
23562;DHT22;11959;49.418;8.728;2024-02-21T02:49:13;8.70;99.90
23562;DHT22;11959;49.418;8.728;2024-02-21T02:51:42;8.70;99.90
23562;DHT22;11959;49.418;8.728;2024-02-21T02:54:09;8.70;99.90
23562;DHT22;11959;49.418;8.728;2024-02-21T02:56:34;8.60;99.90
23562;DHT22;11959;49.418;8.728;2024-02-21T02:59:00;8.60;99.90
23562;DHT22;11959;49.418;8.728;2024-02-21T03:01:26;8.60;99.90
23562;DHT22;11959;49.418;8.728;2024-02-21T03:03:52;8.60;99.90
23562;DHT22;11959;49.418;8.728;2024-02-21T03:06:19;8.60;99.90
23562;DHT22;11959;49.418;8.728;2024-02-21T03:08:44;8.70;99.90
23562;DHT22;11959;49.418;8.728;2024-02-21T03:11:10;8.70;99.90
23562;DHT22;11959;49.418;8.728;2024-02-21T03:13:36;8.70;99.90
23562;DHT22;11959;49.418;8.728;2024-02-21T03:16:02;8.60;99.90
23562;DHT22;11959;49.418;8.728;2024-02-21T03:18:28;8.60;99.90
23562;DHT22;11959;49.418;8.728;2024-02-21T03:20:53;8.50;99.90
23562;DHT22;11959;49.418;8.728;2024-02-21T03:23:19;8.50;99.90
23562;DHT22;11959;49.418;8.728;2024-02-21T03:25:45;8.50;99.90
23562;DHT22;11959;49.418;8.728;2024-02-21T03:28:11;8.50;99.90
23562;DHT22;11959;49.418;8.728;2024-02-21T03:30:36;8.50;99.90
23562;DHT22;11959;49.418;8.728;2024-02-21T03:33:02;8.50;99.90
23562;DHT22;11959;49.418;8.728;2024-02-21T03:35:29;8.50;99.90
23562;DHT22;11959;49.418;8.728;2024-02-21T03:37:55;8.40;99.90
23562;DHT22;11959;49.418;8.728;2024-02-21T03:40:21;8.40;99.90
23562;DHT22;11959;49.418;8.728;2024-02-21T03:42:46;8.40;99.90
23562;DHT22;11959;49.418;8.728;2024-02-21T03:45:12;8.40;99.90
23562;DHT22;11959;49.418;8.728;2024-02-21T03:47:38;8.40;99.90
23562;DHT22;11959;49.418;8.728;2024-02-21T03:50:05;8.30;99.90
23562;DHT22;11959;49.418;8.728;2024-02-21T03:52:31;8.30;99.90
23562;DHT22;11959;49.418;8.728;2024-02-21T03:54:56;8.30;99.90
23562;DHT22;11959;49.418;8.728;2024-02-21T03:57:22;8.30;99.90
23562;DHT22;11959;49.418;8.728;2024-02-21T03:59:51;8.30;99.90
23562;DHT22;11959;49.418;8.728;2024-02-21T04:02:17;8.30;99.90
23562;DHT22;11959;49.418;8.728;2024-02-21T04:04:44;8.30;99.90
23562;DHT22;11959;49.418;8.728;2024-02-21T04:07:12;8.30;99.90
23562;DHT22;11959;49.418;8.728;2024-02-21T04:09:38;8.30;99.90
23562;DHT22;11959;49.418;8.728;2024-02-21T04:12:04;8.40;99.90
23562;DHT22;11959;49.418;8.728;2024-02-21T04:14:30;8.30;99.90
23562;DHT22;11959;49.418;8.728;2024-02-21T04:16:55;8.30;99.90
23562;DHT22;11959;49.418;8.728;2024-02-21T04:19:21;8.30;99.90
23562;DHT22;11959;49.418;8.728;2024-02-21T04:21:47;8.40;99.90
23562;DHT22;11959;49.418;8.728;2024-02-21T04:24:12;8.40;99.90
23562;DHT22;11959;49.418;8.728;2024-02-21T04:26:38;8.50;99.90
23562;DHT22;11959;49.418;8.728;2024-02-21T04:29:04;8.50;99.90
23562;DHT22;11959;49.418;8.728;2024-02-21T04:31:32;8.50;99.90
23562;DHT22;11959;49.418;8.728;2024-02-21T04:33:58;8.60;99.90
23562;DHT22;11959;49.418;8.728;2024-02-21T04:36:24;8.60;99.90
23562;DHT22;11959;49.418;8.728;2024-02-21T04:38:49;8.60;99.90
23562;DHT22;11959;49.418;8.728;2024-02-21T04:41:15;8.60;99.90
23562;DHT22;11959;49.418;8.728;2024-02-21T04:43:41;8.50;99.90
23562;DHT22;11959;49.418;8.728;2024-02-21T04:46:06;8.50;99.90
23562;DHT22;11959;49.418;8.728;2024-02-21T04:48:32;8.50;99.90
23562;DHT22;11959;49.418;8.728;2024-02-21T04:50:59;8.50;99.90
23562;DHT22;11959;49.418;8.728;2024-02-21T04:53:24;8.50;99.90
23562;DHT22;11959;49.418;8.728;2024-02-21T04:55:50;8.50;99.90
23562;DHT22;11959;49.418;8.728;2024-02-21T04:58:16;8.50;99.90
23562;DHT22;11959;49.418;8.728;2024-02-21T05:00:41;8.40;99.90
23562;DHT22;11959;49.418;8.728;2024-02-21T05:03:07;8.40;99.90
23562;DHT22;11959;49.418;8.728;2024-02-21T05:05:32;8.30;99.90
23562;DHT22;11959;49.418;8.728;2024-02-21T05:07:58;8.30;99.90
23562;DHT22;11959;49.418;8.728;2024-02-21T05:10:23;8.30;99.90
23562;DHT22;11959;49.418;8.728;2024-02-21T05:12:49;8.20;99.90
23562;DHT22;11959;49.418;8.728;2024-02-21T05:15:15;8.20;99.90
23562;DHT22;11959;49.418;8.728;2024-02-21T05:17:40;8.20;99.90
23562;DHT22;11959;49.418;8.728;2024-02-21T05:20:08;8.10;99.90
23562;DHT22;11959;49.418;8.728;2024-02-21T05:22:34;8.10;99.90
23562;DHT22;11959;49.418;8.728;2024-02-21T05:24:59;8.10;99.90
23562;DHT22;11959;49.418;8.728;2024-02-21T05:27:25;8.00;99.90
23562;DHT22;11959;49.418;8.728;2024-02-21T05:29:51;8.00;99.90
23562;DHT22;11959;49.418;8.728;2024-02-21T05:32:16;8.00;99.90
23562;DHT22;11959;49.418;8.728;2024-02-21T05:34:42;7.90;99.90
23562;DHT22;11959;49.418;8.728;2024-02-21T05:37:08;7.90;99.90
23562;DHT22;11959;49.418;8.728;2024-02-21T05:39:33;7.90;99.90
23562;DHT22;11959;49.418;8.728;2024-02-21T05:41:59;7.90;99.90
23562;DHT22;11959;49.418;8.728;2024-02-21T05:44:24;7.90;99.90
23562;DHT22;11959;49.418;8.728;2024-02-21T05:46:52;7.90;99.90
23562;DHT22;11959;49.418;8.728;2024-02-21T05:49:17;7.90;99.90
23562;DHT22;11959;49.418;8.728;2024-02-21T05:51:43;7.90;99.90
23562;DHT22;11959;49.418;8.728;2024-02-21T05:54:09;7.90;99.90
23562;DHT22;11959;49.418;8.728;2024-02-21T05:56:34;7.90;99.90
23562;DHT22;11959;49.418;8.728;2024-02-21T05:59:00;7.80;99.90
23562;DHT22;11959;49.418;8.728;2024-02-21T06:01:25;7.80;99.90
23562;DHT22;11959;49.418;8.728;2024-02-21T06:03:51;7.80;99.90
23562;DHT22;11959;49.418;8.728;2024-02-21T06:06:17;7.80;99.90
23562;DHT22;11959;49.418;8.728;2024-02-21T06:08:42;7.70;99.90
23562;DHT22;11959;49.418;8.728;2024-02-21T06:11:08;7.70;99.90
23562;DHT22;11959;49.418;8.728;2024-02-21T06:13:38;7.70;99.90
23562;DHT22;11959;49.418;8.728;2024-02-21T06:16:05;7.70;99.90
23562;DHT22;11959;49.418;8.728;2024-02-21T06:18:31;7.70;99.90
23562;DHT22;11959;49.418;8.728;2024-02-21T06:20:57;7.70;99.90
23562;DHT22;11959;49.418;8.728;2024-02-21T06:23:22;7.70;99.90
23562;DHT22;11959;49.418;8.728;2024-02-21T06:25:48;7.70;99.90
23562;DHT22;11959;49.418;8.728;2024-02-21T06:28:13;7.70;99.90
23562;DHT22;11959;49.418;8.728;2024-02-21T06:30:40;7.70;99.90
23562;DHT22;11959;49.418;8.728;2024-02-21T06:33:05;7.70;99.90
23562;DHT22;11959;49.418;8.728;2024-02-21T06:35:33;7.70;99.90
23562;DHT22;11959;49.418;8.728;2024-02-21T06:37:59;7.70;99.90
23562;DHT22;11959;49.418;8.728;2024-02-21T06:40:24;7.70;99.90
23562;DHT22;11959;49.418;8.728;2024-02-21T06:42:50;7.70;99.90
23562;DHT22;11959;49.418;8.728;2024-02-21T06:45:16;7.70;99.90
23562;DHT22;11959;49.418;8.728;2024-02-21T06:47:42;7.60;99.90
23562;DHT22;11959;49.418;8.728;2024-02-21T06:50:09;7.60;99.90
23562;DHT22;11959;49.418;8.728;2024-02-21T06:52:35;7.60;99.90
23562;DHT22;11959;49.418;8.728;2024-02-21T06:55:01;7.60;99.90
23562;DHT22;11959;49.418;8.728;2024-02-21T06:57:28;7.60;99.90
23562;DHT22;11959;49.418;8.728;2024-02-21T06:59:54;7.60;99.90
23562;DHT22;11959;49.418;8.728;2024-02-21T07:02:20;7.60;99.90
23562;DHT22;11959;49.418;8.728;2024-02-21T07:04:45;7.70;99.90
23562;DHT22;11959;49.418;8.728;2024-02-21T07:07:11;7.70;99.90
23562;DHT22;11959;49.418;8.728;2024-02-21T07:09:38;7.70;99.90
23562;DHT22;11959;49.418;8.728;2024-02-21T07:12:04;7.70;99.90
23562;DHT22;11959;49.418;8.728;2024-02-21T07:14:32;7.70;99.90
23562;DHT22;11959;49.418;8.728;2024-02-21T07:16:57;7.80;99.90
23562;DHT22;11959;49.418;8.728;2024-02-21T07:19:23;7.80;99.90
23562;DHT22;11959;49.418;8.728;2024-02-21T07:21:49;7.90;99.90
23562;DHT22;11959;49.418;8.728;2024-02-21T07:24:15;7.90;99.90
23562;DHT22;11959;49.418;8.728;2024-02-21T07:26:43;8.00;99.90
23562;DHT22;11959;49.418;8.728;2024-02-21T07:29:09;8.00;99.90
23562;DHT22;11959;49.418;8.728;2024-02-21T07:31:42;8.00;99.90
23562;DHT22;11959;49.418;8.728;2024-02-21T07:34:09;8.00;99.90
23562;DHT22;11959;49.418;8.728;2024-02-21T07:36:34;8.00;99.90
23562;DHT22;11959;49.418;8.728;2024-02-21T07:39:00;8.00;99.90
23562;DHT22;11959;49.418;8.728;2024-02-21T07:41:26;8.10;99.90
23562;DHT22;11959;49.418;8.728;2024-02-21T07:43:52;8.10;99.90
23562;DHT22;11959;49.418;8.728;2024-02-21T07:46:18;8.10;99.90
23562;DHT22;11959;49.418;8.728;2024-02-21T07:48:45;8.10;99.90
23562;DHT22;11959;49.418;8.728;2024-02-21T07:51:11;8.10;99.90
23562;DHT22;11959;49.418;8.728;2024-02-21T07:53:38;8.20;99.90
23562;DHT22;11959;49.418;8.728;2024-02-21T07:56:04;8.20;99.90
23562;DHT22;11959;49.418;8.728;2024-02-21T07:58:30;8.20;99.90
23562;DHT22;11959;49.418;8.728;2024-02-21T08:00:56;8.20;99.90
23562;DHT22;11959;49.418;8.728;2024-02-21T08:03:21;8.30;99.90
23562;DHT22;11959;49.418;8.728;2024-02-21T08:05:48;8.30;99.90
23562;DHT22;11959;49.418;8.728;2024-02-21T08:08:13;8.30;99.90
23562;DHT22;11959;49.418;8.728;2024-02-21T08:10:43;8.40;99.90
23562;DHT22;11959;49.418;8.728;2024-02-21T08:13:09;8.40;99.90
23562;DHT22;11959;49.418;8.728;2024-02-21T08:15:35;8.50;99.90
23562;DHT22;11959;49.418;8.728;2024-02-21T08:18:00;8.50;99.90
23562;DHT22;11959;49.418;8.728;2024-02-21T08:20:27;8.50;99.90
23562;DHT22;11959;49.418;8.728;2024-02-21T08:22:53;8.50;99.90
23562;DHT22;11959;49.418;8.728;2024-02-21T08:25:18;8.50;99.90
23562;DHT22;11959;49.418;8.728;2024-02-21T08:27:44;8.60;99.90
23562;DHT22;11959;49.418;8.728;2024-02-21T08:30:11;8.60;99.90
23562;DHT22;11959;49.418;8.728;2024-02-21T08:32:37;8.60;99.90
23562;DHT22;11959;49.418;8.728;2024-02-21T08:35:02;8.70;99.90
23562;DHT22;11959;49.418;8.728;2024-02-21T08:37:28;8.70;99.90
23562;DHT22;11959;49.418;8.728;2024-02-21T08:39:54;8.70;99.90
23562;DHT22;11959;49.418;8.728;2024-02-21T08:42:19;8.70;99.90
23562;DHT22;11959;49.418;8.728;2024-02-21T08:44:45;8.70;99.90
23562;DHT22;11959;49.418;8.728;2024-02-21T08:47:11;8.80;99.90
23562;DHT22;11959;49.418;8.728;2024-02-21T08:49:37;8.80;99.90
23562;DHT22;11959;49.418;8.728;2024-02-21T08:52:03;8.90;99.90
23562;DHT22;11959;49.418;8.728;2024-02-21T08:54:29;8.90;99.90
23562;DHT22;11959;49.418;8.728;2024-02-21T08:56:55;8.90;99.90
23562;DHT22;11959;49.418;8.728;2024-02-21T08:59:22;9.00;99.90
23562;DHT22;11959;49.418;8.728;2024-02-21T09:01:47;9.00;99.90
23562;DHT22;11959;49.418;8.728;2024-02-21T09:04:13;9.00;99.90
23562;DHT22;11959;49.418;8.728;2024-02-21T09:06:39;9.10;99.90
23562;DHT22;11959;49.418;8.728;2024-02-21T09:09:08;9.10;99.90
23562;DHT22;11959;49.418;8.728;2024-02-21T09:11:34;9.10;99.90
23562;DHT22;11959;49.418;8.728;2024-02-21T09:14:00;9.10;99.90
23562;DHT22;11959;49.418;8.728;2024-02-21T09:16:25;9.10;99.90
23562;DHT22;11959;49.418;8.728;2024-02-21T09:18:51;9.20;99.90
23562;DHT22;11959;49.418;8.728;2024-02-21T09:21:18;9.20;99.90
23562;DHT22;11959;49.418;8.728;2024-02-21T09:23:44;9.20;99.90
23562;DHT22;11959;49.418;8.728;2024-02-21T09:26:10;9.20;99.90
23562;DHT22;11959;49.418;8.728;2024-02-21T09:28:39;9.20;99.90
23562;DHT22;11959;49.418;8.728;2024-02-21T09:31:05;9.20;99.90
23562;DHT22;11959;49.418;8.728;2024-02-21T09:33:30;9.30;99.90
23562;DHT22;11959;49.418;8.728;2024-02-21T09:35:56;9.30;99.90
23562;DHT22;11959;49.418;8.728;2024-02-21T09:38:22;9.30;99.90
23562;DHT22;11959;49.418;8.728;2024-02-21T09:40:51;9.30;99.90
23562;DHT22;11959;49.418;8.728;2024-02-21T09:43:18;9.40;99.90
23562;DHT22;11959;49.418;8.728;2024-02-21T09:45:46;9.40;99.90
23562;DHT22;11959;49.418;8.728;2024-02-21T09:51:09;9.50;99.90
23562;DHT22;11959;49.418;8.728;2024-02-21T09:53:37;9.50;99.90
23562;DHT22;11959;49.418;8.728;2024-02-21T09:56:05;9.60;99.90
23562;DHT22;11959;49.418;8.728;2024-02-21T09:58:33;9.70;99.90
23562;DHT22;11959;49.418;8.728;2024-02-21T10:00:59;9.70;99.90
23562;DHT22;11959;49.418;8.728;2024-02-21T10:03:25;9.80;99.90
23562;DHT22;11959;49.418;8.728;2024-02-21T10:05:51;9.80;99.90
23562;DHT22;11959;49.418;8.728;2024-02-21T10:08:17;9.90;99.90
23562;DHT22;11959;49.418;8.728;2024-02-21T10:10:44;9.90;99.90
23562;DHT22;11959;49.418;8.728;2024-02-21T10:13:10;9.90;99.90
23562;DHT22;11959;49.418;8.728;2024-02-21T10:15:37;10.00;99.90
23562;DHT22;11959;49.418;8.728;2024-02-21T10:18:03;10.00;99.90
23562;DHT22;11959;49.418;8.728;2024-02-21T10:20:29;10.10;99.90
23562;DHT22;11959;49.418;8.728;2024-02-21T10:23:02;10.10;99.90
23562;DHT22;11959;49.418;8.728;2024-02-21T10:25:28;10.20;99.90
23562;DHT22;11959;49.418;8.728;2024-02-21T10:27:55;10.20;99.90
23562;DHT22;11959;49.418;8.728;2024-02-21T10:30:21;10.30;99.90
23562;DHT22;11959;49.418;8.728;2024-02-21T10:32:50;10.40;99.90
23562;DHT22;11959;49.418;8.728;2024-02-21T10:35:29;10.40;99.90
23562;DHT22;11959;49.418;8.728;2024-02-21T10:37:56;10.40;99.90
23562;DHT22;11959;49.418;8.728;2024-02-21T10:40:26;10.50;99.90
23562;DHT22;11959;49.418;8.728;2024-02-21T10:42:57;10.60;99.90
23562;DHT22;11959;49.418;8.728;2024-02-21T10:45:33;10.60;99.90
23562;DHT22;11959;49.418;8.728;2024-02-21T10:48:22;10.70;99.90
23562;DHT22;11959;49.418;8.728;2024-02-21T10:51:03;10.60;99.90
23562;DHT22;11959;49.418;8.728;2024-02-21T10:56:21;10.70;99.90
23562;DHT22;11959;49.418;8.728;2024-02-21T10:58:50;10.70;99.90
23562;DHT22;11959;49.418;8.728;2024-02-21T11:01:18;10.80;99.90
23562;DHT22;11959;49.418;8.728;2024-02-21T11:03:45;10.70;99.90
23562;DHT22;11959;49.418;8.728;2024-02-21T11:06:12;10.70;99.90
23562;DHT22;11959;49.418;8.728;2024-02-21T11:08:38;10.70;99.90
23562;DHT22;11959;49.418;8.728;2024-02-21T11:11:05;10.80;99.90
23562;DHT22;11959;49.418;8.728;2024-02-21T11:13:37;10.90;99.90
23562;DHT22;11959;49.418;8.728;2024-02-21T11:16:10;10.90;99.90
23562;DHT22;11959;49.418;8.728;2024-02-21T11:18:37;10.90;99.90
23562;DHT22;11959;49.418;8.728;2024-02-21T11:21:03;11.00;99.90
23562;DHT22;11959;49.418;8.728;2024-02-21T11:23:31;11.00;99.90
23562;DHT22;11959;49.418;8.728;2024-02-21T11:26:07;11.00;99.90
23562;DHT22;11959;49.418;8.728;2024-02-21T11:28:33;11.00;99.90
23562;DHT22;11959;49.418;8.728;2024-02-21T11:31:13;11.10;99.90
23562;DHT22;11959;49.418;8.728;2024-02-21T11:33:42;11.10;99.90
23562;DHT22;11959;49.418;8.728;2024-02-21T11:36:09;11.20;99.90
23562;DHT22;11959;49.418;8.728;2024-02-21T11:38:35;11.30;99.90
23562;DHT22;11959;49.418;8.728;2024-02-21T11:41:01;11.40;99.90
23562;DHT22;11959;49.418;8.728;2024-02-21T11:43:26;11.40;99.90
23562;DHT22;11959;49.418;8.728;2024-02-21T11:46:01;11.50;99.90
23562;DHT22;11959;49.418;8.728;2024-02-21T11:48:32;11.50;99.90
23562;DHT22;11959;49.418;8.728;2024-02-21T11:50:58;11.50;99.90
23562;DHT22;11959;49.418;8.728;2024-02-21T11:53:23;11.50;99.90
23562;DHT22;11959;49.418;8.728;2024-02-21T11:55:50;11.60;99.90
23562;DHT22;11959;49.418;8.728;2024-02-21T11:58:16;11.60;99.90
23562;DHT22;11959;49.418;8.728;2024-02-21T12:00:42;11.50;99.90
23562;DHT22;11959;49.418;8.728;2024-02-21T12:03:08;11.50;99.90
23562;DHT22;11959;49.418;8.728;2024-02-21T12:05:34;11.60;99.90
23562;DHT22;11959;49.418;8.728;2024-02-21T12:08:00;11.60;99.90
23562;DHT22;11959;49.418;8.728;2024-02-21T12:10:26;11.60;99.90
23562;DHT22;11959;49.418;8.728;2024-02-21T12:13:05;11.60;99.90
23562;DHT22;11959;49.418;8.728;2024-02-21T12:15:31;11.70;99.90
23562;DHT22;11959;49.418;8.728;2024-02-21T12:17:57;11.70;99.90
23562;DHT22;11959;49.418;8.728;2024-02-21T12:20:23;11.60;99.90
23562;DHT22;11959;49.418;8.728;2024-02-21T12:22:51;11.60;99.90
23562;DHT22;11959;49.418;8.728;2024-02-21T12:25:22;11.60;99.90
23562;DHT22;11959;49.418;8.728;2024-02-21T12:27:48;11.60;99.90
23562;DHT22;11959;49.418;8.728;2024-02-21T12:30:15;11.60;99.90
23562;DHT22;11959;49.418;8.728;2024-02-21T12:32:41;11.60;99.90
23562;DHT22;11959;49.418;8.728;2024-02-21T12:35:07;11.60;99.90
23562;DHT22;11959;49.418;8.728;2024-02-21T12:37:33;11.70;99.90
23562;DHT22;11959;49.418;8.728;2024-02-21T12:39:59;11.70;99.90
23562;DHT22;11959;49.418;8.728;2024-02-21T12:42:25;11.80;99.90
23562;DHT22;11959;49.418;8.728;2024-02-21T12:44:54;11.80;99.90
23562;DHT22;11959;49.418;8.728;2024-02-21T12:47:20;11.80;99.90
23562;DHT22;11959;49.418;8.728;2024-02-21T12:49:49;11.80;99.90
23562;DHT22;11959;49.418;8.728;2024-02-21T12:52:15;11.80;99.90
23562;DHT22;11959;49.418;8.728;2024-02-21T12:54:40;11.80;99.90
23562;DHT22;11959;49.418;8.728;2024-02-21T12:57:08;11.80;99.90
23562;DHT22;11959;49.418;8.728;2024-02-21T12:59:33;11.80;99.90
23562;DHT22;11959;49.418;8.728;2024-02-21T13:01:59;11.80;99.90
23562;DHT22;11959;49.418;8.728;2024-02-21T13:04:25;11.80;99.90
23562;DHT22;11959;49.418;8.728;2024-02-21T13:06:50;11.80;99.90
23562;DHT22;11959;49.418;8.728;2024-02-21T13:09:16;11.80;99.90
23562;DHT22;11959;49.418;8.728;2024-02-21T13:11:42;11.80;99.90
23562;DHT22;11959;49.418;8.728;2024-02-21T13:14:10;11.80;99.90
23562;DHT22;11959;49.418;8.728;2024-02-21T13:16:35;11.80;99.90
23562;DHT22;11959;49.418;8.728;2024-02-21T13:19:05;11.80;99.90
23562;DHT22;11959;49.418;8.728;2024-02-21T13:21:31;11.80;99.90
23562;DHT22;11959;49.418;8.728;2024-02-21T13:23:56;11.80;99.90
23562;DHT22;11959;49.418;8.728;2024-02-21T13:26:22;11.80;99.90
23562;DHT22;11959;49.418;8.728;2024-02-21T13:28:48;11.90;99.90
23562;DHT22;11959;49.418;8.728;2024-02-21T13:31:14;11.80;99.90
23562;DHT22;11959;49.418;8.728;2024-02-21T13:33:42;11.90;99.90
23562;DHT22;11959;49.418;8.728;2024-02-21T13:36:09;12.00;99.90
23562;DHT22;11959;49.418;8.728;2024-02-21T13:38:35;12.00;99.90
23562;DHT22;11959;49.418;8.728;2024-02-21T13:41:01;12.10;99.90
23562;DHT22;11959;49.418;8.728;2024-02-21T13:43:26;12.10;99.90
23562;DHT22;11959;49.418;8.728;2024-02-21T13:45:57;12.10;99.90
23562;DHT22;11959;49.418;8.728;2024-02-21T13:48:25;12.10;99.90
23562;DHT22;11959;49.418;8.728;2024-02-21T13:50:52;12.00;99.90
23562;DHT22;11959;49.418;8.728;2024-02-21T13:53:17;12.00;99.90
23562;DHT22;11959;49.418;8.728;2024-02-21T13:55:45;12.00;99.90
23562;DHT22;11959;49.418;8.728;2024-02-21T13:58:11;12.00;99.90
23562;DHT22;11959;49.418;8.728;2024-02-21T14:00:36;12.00;99.90
23562;DHT22;11959;49.418;8.728;2024-02-21T14:03:02;12.00;99.90
23562;DHT22;11959;49.418;8.728;2024-02-21T14:05:28;11.90;99.90
23562;DHT22;11959;49.418;8.728;2024-02-21T14:07:54;11.90;99.90
23562;DHT22;11959;49.418;8.728;2024-02-21T14:10:23;12.00;99.90
23562;DHT22;11959;49.418;8.728;2024-02-21T14:12:49;12.00;99.90
23562;DHT22;11959;49.418;8.728;2024-02-21T14:15:15;11.90;99.90
23562;DHT22;11959;49.418;8.728;2024-02-21T14:17:42;11.90;99.90
23562;DHT22;11959;49.418;8.728;2024-02-21T14:20:08;11.90;99.90
23562;DHT22;11959;49.418;8.728;2024-02-21T14:22:34;11.90;99.90
23562;DHT22;11959;49.418;8.728;2024-02-21T14:25:00;11.90;99.90
23562;DHT22;11959;49.418;8.728;2024-02-21T14:27:26;11.90;99.90
23562;DHT22;11959;49.418;8.728;2024-02-21T14:29:52;12.00;99.90
23562;DHT22;11959;49.418;8.728;2024-02-21T14:32:18;11.90;99.90
23562;DHT22;11959;49.418;8.728;2024-02-21T14:34:45;11.90;99.90
23562;DHT22;11959;49.418;8.728;2024-02-21T14:37:11;11.90;99.90
23562;DHT22;11959;49.418;8.728;2024-02-21T14:39:36;12.00;99.90
23562;DHT22;11959;49.418;8.728;2024-02-21T14:42:02;12.00;99.90
23562;DHT22;11959;49.418;8.728;2024-02-21T14:44:28;11.90;99.90
23562;DHT22;11959;49.418;8.728;2024-02-21T14:46:54;11.90;99.90
23562;DHT22;11959;49.418;8.728;2024-02-21T14:49:19;11.90;99.90
23562;DHT22;11959;49.418;8.728;2024-02-21T14:51:45;11.90;99.90
23562;DHT22;11959;49.418;8.728;2024-02-21T14:54:11;11.90;99.90
23562;DHT22;11959;49.418;8.728;2024-02-21T14:56:38;11.90;99.90
23562;DHT22;11959;49.418;8.728;2024-02-21T14:59:04;11.90;99.90
23562;DHT22;11959;49.418;8.728;2024-02-21T15:01:35;11.80;99.90
23562;DHT22;11959;49.418;8.728;2024-02-21T15:04:02;11.90;99.90
23562;DHT22;11959;49.418;8.728;2024-02-21T15:06:28;11.80;99.90
23562;DHT22;11959;49.418;8.728;2024-02-21T15:08:53;11.80;99.90
23562;DHT22;11959;49.418;8.728;2024-02-21T15:11:19;11.80;99.90
23562;DHT22;11959;49.418;8.728;2024-02-21T15:13:45;11.80;99.90
23562;DHT22;11959;49.418;8.728;2024-02-21T15:16:11;11.80;99.90
23562;DHT22;11959;49.418;8.728;2024-02-21T15:18:37;11.80;99.90
23562;DHT22;11959;49.418;8.728;2024-02-21T15:21:04;11.70;99.90
23562;DHT22;11959;49.418;8.728;2024-02-21T15:23:29;11.80;99.90
23562;DHT22;11959;49.418;8.728;2024-02-21T15:25:55;11.80;99.90
23562;DHT22;11959;49.418;8.728;2024-02-21T15:28:21;11.70;99.90
23562;DHT22;11959;49.418;8.728;2024-02-21T15:30:47;11.60;99.90
23562;DHT22;11959;49.418;8.728;2024-02-21T15:33:12;11.70;99.90
23562;DHT22;11959;49.418;8.728;2024-02-21T15:35:38;11.60;99.90
23562;DHT22;11959;49.418;8.728;2024-02-21T15:38:03;11.60;99.90
23562;DHT22;11959;49.418;8.728;2024-02-21T15:40:30;11.50;99.90